Berit — ZDHX2 — position and weather

sailwx.info

Track history (hours):
 
Tides and Currents Weather Stations Pressure Air Temp Water Temp Dewpoint Dewpoint Depression Visibility Wind Speed Wind Dir Waves Ship Positions

Berit

Last reported at 2016-Sep-23 19:33 UTC. Time now 2016-Oct-01 07:01 UTC.
Position N 59°05' E 004°52'.

Length 83 m; draft 4.7 m.

Type: Cargo ship. MMSI: 236386000.

Date/timePositionNaut miles runAvg speedWind from/ knotsBaromVisibWave heightAir tempDewpointWater temp
2016-Sep-23 19:33N 59°05' E 004°52'18 8.9
2016-Sep-23 17:34N 58°49' E 005°08'8 8.2
2016-Sep-23 16:33N 58°42' E 005°15'9 8.6
2016-Sep-23 15:34N 58°35' E 005°23'19 9.3
2016-Sep-23 13:33N 58°20' E 005°47'39 9.7
2016-Sep-23 09:33N 57°55' E 006°43'51 9.8
2016-Sep-23 04:23N 58°02' E 008°18'911.1
2016-Sep-23 03:33N 58°07' E 008°32'1110.8
2016-Sep-23 02:33N 58°14' E 008°48'6110.2
2016-Sep-22 20:34N 58°52' E 010°20'36 0.9
2016-Sep-21 03:33N 59°28' E 010°30'10 9.6
2016-Sep-21 02:34N 59°18' E 010°34'44 4.9
2016-Sep-20 17:34N 58°44' E 009°42'1 0.5
2016-Sep-20 14:34N 58°43' E 009°40'1 1.3
2016-Sep-20 13:34N 58°43' E 009°43'4 1.5
2016-Sep-20 10:32N 58°41' E 009°51'2 1.2
2016-Sep-20 08:34N 58°42' E 009°46'1 1.2
2016-Sep-20 07:33N 58°42' E 009°49'1 1.3
2016-Sep-20 06:33N 58°41' E 009°51'5 1.2
2016-Sep-20 02:34N 58°39' E 009°58'2 0.6
2016-Sep-19 23:34N 58°38' E 010°01'4 0.9
2016-Sep-19 19:34N 58°41' E 010°02'4 3.5
2016-Sep-19 18:33N 58°45' E 010°01'5 2.5
2016-Sep-19 16:33N 58°50' E 009°58'5 2.7
2016-Sep-19 14:32N 58°44' E 009°58'6 5.4
2016-Sep-19 13:24N 58°50' E 009°54'7 8.2
2016-Sep-19 12:33N 58°56' E 009°50'7 7.3
2016-Sep-19 11:33N 58°58' E 010°03'4 1.1
2016-Sep-19 07:33N 59°03' E 010°03'0 0.0
2016-Sep-19 06:33N 59°03' E 010°03'0 0.0
2016-Sep-19 02:30N 59°03' E 010°03'0 0.0
2016-Sep-19 00:03N 59°03' E 010°03'0 0.0
2016-Sep-18 15:33N 59°03' E 010°03'0 0.0
2016-Sep-18 14:33N 59°03' E 010°03'0 0.0
2016-Sep-18 10:06N 59°03' E 010°03'0 0.0
2016-Sep-18 09:27N 59°03' E 010°03'17 2.5
2016-Sep-18 02:34N 58°46' E 009°57'7 7.2
2016-Sep-18 01:33N 58°39' E 010°02'8 7.4
2016-Sep-18 00:30N 58°32' E 010°09'14 7.4
2016-Sep-17 22:33N 58°20' E 010°23'7 7.3
2016-Sep-17 21:33N 58°13' E 010°30'10 7.0
2016-Sep-17 20:12N 58°04' E 010°35'  
2016-Sep-14 16:11N 56°49' E 010°45'24 9.2
2016-Sep-14 13:34N 57°13' E 010°44'9 8.7
2016-Sep-14 12:33N 57°22' E 010°42'17 8.5
2016-Sep-14 10:33N 57°39' E 010°40'4 4.0
2016-Sep-14 09:32N 57°42' E 010°36'0 0.0
2016-Sep-14 08:26N 57°42' E 010°36'0 0.0
2016-Sep-14 07:26N 57°42' E 010°36'0 0.0
2016-Sep-14 06:26N 57°42' E 010°36'0 0.0
2016-Sep-14 03:32N 57°42' E 010°36'0 0.0
2016-Sep-13 22:26N 57°42' E 010°36'0 0.0
2016-Sep-13 20:32N 57°42' E 010°36'  
Track history (hours):
 
Tides and Currents Weather Stations Pressure Air Temp Water Temp Dewpoint Dewpoint Depression Visibility Wind Speed Wind Dir Waves Ship Positions

Berit

Last reported at 2016-Sep-23 19:33 UTC. Time now 2016-Oct-01 07:01 UTC.
Position N 59°05' E 004°52'.

Length 83 m; draft 4.7 m.

Type: Cargo ship. MMSI: 236386000.

Date/timePositionNaut miles runAvg speedWind from/ knotsBaromVisibWave heightAir tempDewpointWater temp
2016-Sep-23 19:33N 59°05' E 004°52'18 8.9
2016-Sep-23 17:34N 58°49' E 005°08'8 8.2
2016-Sep-23 16:33N 58°42' E 005°15'9 8.6
2016-Sep-23 15:34N 58°35' E 005°23'19 9.3
2016-Sep-23 13:33N 58°20' E 005°47'39 9.7
2016-Sep-23 09:33N 57°55' E 006°43'51 9.8
2016-Sep-23 04:23N 58°02' E 008°18'911.1
2016-Sep-23 03:33N 58°07' E 008°32'1110.8
2016-Sep-23 02:33N 58°14' E 008°48'6110.2
2016-Sep-22 20:34N 58°52' E 010°20'36 0.9
2016-Sep-21 03:33N 59°28' E 010°30'10 9.6
2016-Sep-21 02:34N 59°18' E 010°34'44 4.9
2016-Sep-20 17:34N 58°44' E 009°42'1 0.5
2016-Sep-20 14:34N 58°43' E 009°40'1 1.3
2016-Sep-20 13:34N 58°43' E 009°43'4 1.5
2016-Sep-20 10:32N 58°41' E 009°51'2 1.2
2016-Sep-20 08:34N 58°42' E 009°46'1 1.2
2016-Sep-20 07:33N 58°42' E 009°49'1 1.3
2016-Sep-20 06:33N 58°41' E 009°51'5 1.2
2016-Sep-20 02:34N 58°39' E 009°58'2 0.6
2016-Sep-19 23:34N 58°38' E 010°01'4 0.9
2016-Sep-19 19:34N 58°41' E 010°02'4 3.5
2016-Sep-19 18:33N 58°45' E 010°01'5 2.5
2016-Sep-19 16:33N 58°50' E 009°58'5 2.7
2016-Sep-19 14:32N 58°44' E 009°58'6 5.4
2016-Sep-19 13:24N 58°50' E 009°54'7 8.2
2016-Sep-19 12:33N 58°56' E 009°50'7 7.3
2016-Sep-19 11:33N 58°58' E 010°03'4 1.1
2016-Sep-19 07:33N 59°03' E 010°03'0 0.0
2016-Sep-19 06:33N 59°03' E 010°03'0 0.0
2016-Sep-19 02:30N 59°03' E 010°03'0 0.0
2016-Sep-19 00:03N 59°03' E 010°03'0 0.0
2016-Sep-18 15:33N 59°03' E 010°03'0 0.0
2016-Sep-18 14:33N 59°03' E 010°03'0 0.0
2016-Sep-18 10:06N 59°03' E 010°03'0 0.0
2016-Sep-18 09:27N 59°03' E 010°03'17 2.5
2016-Sep-18 02:34N 58°46' E 009°57'7 7.2
2016-Sep-18 01:33N 58°39' E 010°02'8 7.4
2016-Sep-18 00:30N 58°32' E 010°09'14 7.4
2016-Sep-17 22:33N 58°20' E 010°23'7 7.3
2016-Sep-17 21:33N 58°13' E 010°30'10 7.0
2016-Sep-17 20:12N 58°04' E 010°35'  
2016-Sep-14 16:11N 56°49' E 010°45'24 9.2
2016-Sep-14 13:34N 57°13' E 010°44'9 8.7
2016-Sep-14 12:33N 57°22' E 010°42'17 8.5
2016-Sep-14 10:33N 57°39' E 010°40'4 4.0
2016-Sep-14 09:32N 57°42' E 010°36'0 0.0
2016-Sep-14 08:26N 57°42' E 010°36'0 0.0
2016-Sep-14 07:26N 57°42' E 010°36'0 0.0
2016-Sep-14 06:26N 57°42' E 010°36'0 0.0
2016-Sep-14 03:32N 57°42' E 010°36'0 0.0
2016-Sep-13 22:26N 57°42' E 010°36'0 0.0
2016-Sep-13 20:32N 57°42' E 010°36'  

Dump ship's entire track history